createdAt,value
2018-05-14T05:46:03.547Z,17.07
2018-05-14T05:46:38.841Z,17.22
2018-05-14T05:47:14.123Z,17.29
2018-05-14T05:47:49.457Z,17.17
2018-05-14T05:48:24.995Z,17.29
2018-05-14T05:49:00.249Z,17.29
2018-05-14T05:49:35.883Z,17.28
2018-05-14T05:50:11.232Z,17.38
2018-05-14T05:50:46.770Z,17.40
2018-05-14T05:51:22.338Z,17.43
2018-05-14T05:51:57.807Z,17.33
2018-05-14T05:52:33.259Z,17.44
2018-05-14T05:53:08.415Z,17.47
2018-05-14T05:53:43.753Z,17.47
2018-05-14T05:54:19.179Z,17.41
2018-05-14T05:54:54.391Z,17.46
2018-05-14T05:55:29.731Z,17.41
2018-05-14T05:56:05.381Z,17.43
2018-05-14T05:56:40.862Z,17.44
2018-05-14T05:57:16.258Z,17.36
2018-05-14T05:57:51.711Z,17.46
2018-05-14T05:58:27.059Z,17.44
2018-05-14T05:59:02.369Z,17.51
2018-05-14T05:59:37.830Z,17.44
2018-05-14T06:00:13.367Z,17.57
2018-05-14T06:00:48.594Z,17.53
2018-05-14T06:01:24.025Z,17.55
2018-05-14T06:01:59.272Z,17.57
2018-05-14T06:02:34.899Z,17.62
2018-05-14T06:03:10.345Z,17.51
2018-05-14T06:03:45.992Z,17.62
2018-05-14T06:04:20.964Z,17.59
2018-05-14T06:04:56.340Z,17.59
2018-05-14T06:05:31.671Z,17.64
2018-05-14T06:06:07.057Z,17.57
2018-05-14T06:06:42.415Z,17.69
2018-05-14T06:07:17.728Z,17.69
2018-05-14T06:07:53.125Z,17.62
2018-05-14T06:08:28.460Z,17.71
2018-05-14T06:09:04.095Z,17.76
2018-05-14T06:09:39.476Z,17.74
2018-05-14T06:10:14.798Z,17.92
2018-05-14T06:10:49.898Z,17.84
2018-05-14T06:11:25.677Z,17.91
2018-05-14T06:12:01.107Z,17.88
2018-05-14T06:12:36.855Z,18.00
2018-05-14T06:13:12.398Z,17.99
2018-05-14T06:13:47.809Z,18.12
2018-05-14T06:14:22.902Z,18.10
2018-05-14T06:14:58.532Z,18.12
2018-05-14T06:15:33.763Z,18.07
2018-05-14T06:16:09.073Z,18.12
2018-05-14T06:16:44.520Z,18.12
2018-05-14T06:17:19.709Z,18.12
2018-05-14T06:17:55.242Z,18.04
2018-05-14T06:18:30.520Z,18.06
2018-05-14T06:19:06.163Z,18.10
2018-05-14T06:19:42.059Z,18.25
2018-05-14T06:20:17.311Z,18.22
2018-05-14T06:20:52.731Z,18.42
2018-05-14T06:21:28.346Z,18.33
2018-05-14T06:22:03.599Z,18.37
2018-05-14T06:22:39.510Z,18.39
2018-05-14T06:23:14.774Z,18.49
2018-05-14T06:23:49.952Z,18.52
2018-05-14T06:24:25.272Z,18.67
2018-05-14T06:25:00.571Z,18.74
2018-05-14T06:25:36.181Z,18.74
2018-05-14T06:26:11.877Z,18.91
2018-05-14T06:26:47.254Z,18.90
2018-05-14T06:27:22.677Z,18.94
2018-05-14T06:27:58.108Z,18.99
2018-05-14T06:28:33.593Z,19.20
2018-05-14T06:29:09.150Z,19.28
2018-05-14T06:29:44.722Z,19.40
2018-05-14T06:30:20.076Z,19.54
2018-05-14T06:30:55.826Z,19.72
2018-05-14T06:31:31.156Z,19.80
2018-05-14T06:32:06.844Z,20.16
2018-05-14T06:32:41.941Z,20.47
2018-05-14T06:33:17.324Z,20.62
2018-05-14T06:33:52.669Z,20.86
2018-05-14T06:34:27.919Z,21.11
2018-05-14T06:35:03.274Z,21.27
2018-05-14T06:35:39.551Z,21.56
2018-05-14T06:36:15.175Z,21.71
2018-05-14T06:36:50.437Z,21.98
2018-05-14T06:37:25.772Z,22.12
2018-05-14T06:38:00.997Z,22.34
2018-05-14T06:38:36.852Z,22.56
2018-05-14T06:39:12.121Z,22.59
2018-05-14T06:39:47.500Z,22.56
2018-05-14T06:40:22.650Z,22.47
2018-05-14T06:40:57.739Z,22.19
2018-05-14T06:41:33.131Z,21.98
2018-05-14T06:42:08.468Z,22.06
2018-05-14T06:42:43.821Z,22.34
2018-05-14T06:43:19.151Z,22.41
2018-05-14T06:43:54.488Z,22.49
2018-05-14T06:44:29.897Z,22.65
2018-05-14T06:45:05.333Z,22.47
2018-05-14T06:45:42.323Z,22.43
2018-05-14T06:46:17.332Z,22.49
2018-05-14T06:46:52.601Z,22.77
2018-05-14T06:47:28.139Z,23.05
2018-05-14T06:48:03.778Z,23.20
2018-05-14T06:48:39.059Z,23.17
2018-05-14T06:49:14.838Z,23.08
2018-05-14T06:49:50.284Z,23.07
2018-05-14T06:50:25.831Z,23.17
2018-05-14T06:51:00.951Z,23.19
2018-05-14T06:51:36.505Z,23.19
2018-05-14T06:52:11.841Z,22.90
2018-05-14T06:52:47.258Z,23.01
2018-05-14T06:53:22.981Z,22.65
2018-05-14T06:53:58.235Z,22.89
2018-05-14T06:54:33.712Z,22.90
2018-05-14T06:55:09.186Z,22.71
2018-05-14T06:55:44.835Z,22.62
2018-05-14T06:56:20.471Z,22.78
2018-05-14T06:56:55.681Z,23.01
2018-05-14T06:57:31.071Z,22.97
2018-05-14T06:58:06.499Z,23.12
2018-05-14T06:58:45.666Z,23.39
2018-05-14T06:59:20.892Z,23.53
2018-05-14T06:59:56.700Z,23.23
2018-05-14T07:00:32.008Z,23.49
2018-05-14T07:01:07.419Z,23.64
2018-05-14T07:01:42.906Z,23.43
2018-05-14T07:02:18.347Z,23.68
2018-05-14T07:02:53.860Z,23.45
2018-05-14T07:03:29.222Z,23.67
2018-05-14T07:04:04.577Z,23.67
2018-05-14T07:04:39.824Z,23.61
2018-05-14T07:05:15.212Z,23.35
2018-05-14T07:05:50.437Z,23.31
2018-05-14T07:06:26.027Z,23.05
2018-05-14T07:07:01.224Z,23.01
2018-05-14T07:07:36.583Z,23.15
2018-05-14T07:08:12.351Z,23.45
2018-05-14T07:08:47.899Z,23.38
2018-05-14T07:09:23.221Z,23.12
2018-05-14T07:09:58.649Z,23.24
2018-05-14T07:10:33.978Z,23.45
2018-05-14T07:11:09.215Z,23.20
2018-05-14T07:11:44.481Z,23.01
2018-05-14T07:12:20.009Z,22.92
2018-05-14T07:12:55.347Z,22.83
2018-05-14T07:13:30.752Z,22.67
2018-05-14T07:14:06.103Z,22.80
2018-05-14T07:14:41.469Z,23.01
2018-05-14T07:15:16.754Z,23.14
2018-05-14T07:15:51.974Z,23.31
2018-05-14T07:16:27.317Z,23.49
2018-05-14T07:17:02.681Z,23.67
2018-05-14T07:17:37.853Z,23.77
2018-05-14T07:18:13.518Z,23.72
2018-05-14T07:18:48.730Z,23.89
2018-05-14T07:19:24.141Z,23.87
2018-05-14T07:19:59.744Z,23.76
2018-05-14T07:20:35.375Z,23.45
2018-05-14T07:21:10.706Z,23.31
2018-05-14T07:21:46.162Z,23.24
2018-05-14T07:22:21.628Z,23.42
2018-05-14T07:22:57.186Z,23.47
2018-05-14T07:23:32.367Z,23.39
2018-05-14T07:24:07.710Z,23.67
2018-05-14T07:24:43.442Z,23.64
2018-05-14T07:25:18.906Z,23.75
2018-05-14T07:25:54.783Z,23.76
2018-05-14T07:26:30.111Z,23.83
2018-05-14T07:27:05.447Z,23.72
2018-05-14T07:27:40.725Z,23.79
2018-05-14T07:28:16.116Z,23.49
2018-05-14T07:28:51.442Z,23.46
2018-05-14T07:29:26.851Z,23.70
2018-05-14T07:30:02.191Z,23.85
2018-05-14T07:30:38.188Z,24.00
2018-05-14T07:31:13.594Z,24.12
2018-05-14T07:31:48.911Z,24.27
2018-05-14T07:32:24.367Z,24.64
2018-05-14T07:32:59.671Z,24.83
2018-05-14T07:33:35.117Z,25.17
2018-05-14T07:34:10.342Z,25.30
2018-05-14T07:34:45.822Z,25.35
2018-05-14T07:35:21.119Z,25.32
2018-05-14T07:35:56.450Z,25.30
2018-05-14T07:36:31.746Z,25.20
2018-05-14T07:37:06.877Z,25.28
2018-05-14T07:37:42.093Z,25.52
2018-05-14T07:38:17.427Z,25.35
2018-05-14T07:38:52.917Z,25.46
2018-05-14T07:39:28.502Z,25.52
2018-05-14T07:40:03.693Z,25.74
2018-05-14T07:40:38.914Z,26.06
2018-05-14T07:41:14.109Z,26.37
2018-05-14T07:41:49.956Z,26.47
2018-05-14T07:42:25.339Z,26.80
2018-05-14T07:43:00.762Z,27.01
2018-05-14T07:43:36.101Z,27.21
2018-05-14T07:44:11.660Z,26.99
2018-05-14T07:44:47.062Z,27.09
2018-05-14T07:45:22.521Z,27.31
2018-05-14T07:45:57.931Z,27.21
2018-05-14T07:46:33.421Z,27.39
2018-05-14T07:47:08.751Z,27.28
2018-05-14T07:47:44.003Z,26.73
2018-05-14T07:48:19.420Z,26.50
2018-05-14T07:48:54.630Z,26.72
2018-05-14T07:49:30.296Z,26.59
2018-05-14T07:50:05.947Z,27.13
2018-05-14T07:50:41.157Z,27.39
2018-05-14T07:51:16.457Z,27.20
2018-05-14T07:51:52.127Z,27.50
2018-05-14T07:52:27.474Z,27.16
2018-05-14T07:53:02.820Z,27.43
2018-05-14T07:53:38.440Z,27.54
2018-05-14T07:54:13.740Z,27.10
2018-05-14T07:54:49.290Z,27.02
2018-05-14T07:55:24.543Z,27.01
2018-05-14T07:55:59.874Z,26.62
2018-05-14T07:56:35.161Z,26.77
2018-05-14T07:57:10.519Z,26.74
2018-05-14T07:57:46.190Z,26.72
2018-05-14T07:58:22.380Z,26.86
2018-05-14T07:58:57.945Z,26.89
2018-05-14T07:59:33.850Z,27.13
2018-05-14T08:00:09.516Z,27.24
2018-05-14T08:00:44.937Z,27.02
2018-05-14T08:01:20.571Z,27.09
2018-05-14T08:01:55.859Z,27.14
2018-05-14T08:02:31.606Z,27.13
2018-05-14T08:03:07.041Z,27.23
2018-05-14T08:03:42.525Z,27.01
2018-05-14T08:04:18.176Z,27.05
2018-05-14T08:04:53.546Z,27.16
2018-05-14T08:05:29.378Z,27.79
2018-05-14T08:06:04.562Z,27.53
2018-05-14T08:06:39.786Z,27.53
2018-05-14T08:07:14.983Z,28.10
2018-05-14T08:07:50.347Z,27.91
2018-05-14T08:08:25.442Z,27.74
2018-05-14T08:09:00.810Z,27.74
2018-05-14T08:09:36.201Z,27.71
2018-05-14T08:10:11.711Z,27.53
2018-05-14T08:10:47.473Z,27.62
2018-05-14T08:11:22.922Z,27.67
2018-05-14T08:11:58.508Z,27.76
2018-05-14T08:12:33.651Z,27.80
2018-05-14T08:13:09.009Z,28.17
2018-05-14T08:13:44.698Z,27.92
2018-05-14T08:14:20.060Z,28.41
2018-05-14T08:14:55.625Z,28.96
2018-05-14T08:15:30.988Z,28.87
2018-05-14T08:16:06.422Z,29.53
2018-05-14T08:16:41.935Z,29.63
2018-05-14T08:17:17.114Z,30.03
2018-05-14T08:17:52.761Z,30.26
2018-05-14T08:18:28.174Z,30.53
2018-05-14T08:19:03.654Z,30.76
2018-05-14T08:19:39.401Z,31.26
2018-05-14T08:20:14.709Z,31.65
2018-05-14T08:20:50.225Z,32.25
2018-05-14T08:21:25.590Z,31.57
2018-05-14T08:22:01.347Z,31.99
2018-05-14T08:22:36.924Z,32.58
2018-05-14T08:23:12.332Z,32.58
2018-05-14T08:23:47.746Z,32.35
2018-05-14T08:24:22.965Z,32.48
2018-05-14T08:24:58.586Z,32.80
2018-05-14T08:25:34.204Z,33.10
2018-05-14T08:26:09.566Z,32.62
2018-05-14T08:26:44.907Z,32.43
2018-05-14T08:27:20.527Z,32.02
2018-05-14T08:27:55.776Z,31.75
2018-05-14T08:28:31.418Z,31.61
2018-05-14T08:29:06.789Z,32.02
2018-05-14T08:29:42.330Z,31.45
2018-05-14T08:30:17.790Z,32.25
2018-05-14T08:30:53.326Z,32.86
2018-05-14T08:31:28.713Z,33.53
2018-05-14T08:32:04.154Z,34.00
2018-05-14T08:32:39.434Z,33.71
2018-05-14T08:33:14.697Z,34.54
2018-05-14T08:33:50.020Z,34.39
2018-05-14T08:34:25.418Z,34.94
2018-05-14T08:35:00.803Z,35.17
2018-05-14T08:35:36.092Z,35.13
2018-05-14T08:36:11.335Z,35.50
2018-05-14T08:36:46.732Z,35.63
2018-05-14T08:37:22.302Z,36.03
2018-05-14T08:37:57.776Z,35.39
2018-05-14T08:38:33.566Z,35.82
2018-05-14T08:39:08.695Z,35.29
2018-05-14T08:39:43.857Z,35.99
2018-05-14T08:40:19.174Z,35.74
2018-05-14T08:40:54.744Z,35.25
2018-05-14T08:41:30.060Z,35.91
2018-05-14T08:42:05.466Z,36.38
2018-05-14T08:42:41.029Z,36.65
2018-05-14T08:43:16.531Z,37.07
2018-05-14T08:43:51.896Z,37.43
2018-05-14T08:44:27.811Z,37.46
2018-05-14T08:45:03.109Z,37.59
2018-05-14T08:45:38.885Z,37.67
2018-05-14T08:46:14.332Z,37.46
2018-05-14T08:46:49.901Z,37.26
2018-05-14T08:47:25.437Z,37.89
2018-05-14T08:48:00.927Z,36.46
2018-05-14T08:48:36.266Z,36.79
2018-05-14T08:49:11.739Z,37.21
2018-05-14T08:49:47.056Z,37.05
2018-05-14T08:50:22.364Z,36.95
2018-05-14T08:50:57.593Z,37.68
2018-05-14T08:51:32.967Z,37.89
2018-05-14T08:52:08.613Z,37.96
2018-05-14T08:52:43.883Z,38.22
2018-05-14T08:53:19.340Z,38.33
2018-05-14T08:53:54.809Z,38.58
2018-05-14T08:54:30.341Z,38.12
2018-05-14T08:55:05.543Z,38.08
2018-05-14T08:55:41.097Z,38.42
2018-05-14T08:56:16.597Z,37.51
2018-05-14T08:56:52.179Z,36.79
2018-05-14T08:57:27.856Z,37.51
2018-05-14T08:58:03.335Z,37.95
2018-05-14T08:58:38.931Z,38.10
2018-05-14T08:59:14.308Z,38.10
2018-05-14T08:59:49.647Z,37.50
2018-05-14T09:00:25.239Z,35.97
2018-05-14T09:01:00.549Z,35.85
2018-05-14T09:01:35.927Z,36.63
2018-05-14T09:02:11.274Z,37.04
2018-05-14T09:02:46.794Z,36.64
2018-05-14T09:03:22.142Z,35.92
2018-05-14T09:03:57.466Z,35.74
2018-05-14T09:04:32.940Z,34.83
2018-05-14T09:05:08.370Z,34.36
2018-05-14T09:05:44.342Z,33.71
2018-05-14T09:06:19.729Z,34.35
2018-05-14T09:06:55.440Z,34.60
2018-05-14T09:07:30.313Z,35.39
2018-05-14T09:08:05.764Z,35.32
2018-05-14T09:08:41.022Z,35.52
2018-05-14T09:09:16.657Z,34.91
2018-05-14T09:09:52.377Z,34.45
2018-05-14T09:10:28.042Z,34.98
2018-05-14T09:11:03.588Z,35.23
2018-05-14T09:11:38.913Z,35.11
2018-05-14T09:12:14.908Z,35.17
2018-05-14T09:12:50.278Z,34.98
2018-05-14T09:13:25.710Z,34.58
2018-05-14T09:14:00.766Z,34.56
2018-05-14T09:14:36.094Z,34.26
2018-05-14T09:15:11.423Z,34.09
2018-05-14T09:15:46.652Z,34.23
2018-05-14T09:16:22.254Z,34.08
2018-05-14T09:16:57.736Z,34.20
2018-05-14T09:17:33.293Z,34.14
2018-05-14T09:18:08.825Z,34.31
2018-05-14T09:18:44.433Z,34.35
2018-05-14T09:19:20.927Z,34.38
2018-05-14T09:19:56.195Z,34.63
2018-05-14T09:20:31.863Z,34.61
2018-05-14T09:21:07.115Z,34.13
2018-05-14T09:21:42.539Z,33.74
2018-05-14T09:22:17.932Z,34.09
2018-05-14T09:22:53.865Z,35.13
2018-05-14T09:23:29.438Z,34.84
2018-05-14T09:24:04.676Z,35.58
2018-05-14T09:24:40.177Z,35.84
2018-05-14T09:25:15.608Z,36.42
2018-05-14T09:25:51.252Z,36.67
2018-05-14T09:26:27.035Z,36.73
2018-05-14T09:27:02.443Z,37.02
2018-05-14T09:27:37.525Z,37.70
2018-05-14T09:28:12.916Z,37.99
2018-05-14T09:28:48.052Z,37.90
2018-05-14T09:29:23.448Z,38.27
2018-05-14T09:29:58.905Z,38.64
2018-05-14T09:30:34.207Z,38.90
2018-05-14T09:31:09.359Z,37.48
2018-05-14T09:31:44.677Z,37.09
2018-05-14T09:32:19.886Z,37.58
2018-05-14T09:32:55.343Z,37.47
2018-05-14T09:33:30.858Z,36.52
2018-05-14T09:34:06.297Z,36.27
2018-05-14T09:34:41.721Z,35.72
2018-05-14T09:35:17.214Z,35.85
2018-05-14T09:35:52.782Z,34.80
2018-05-14T09:36:28.379Z,34.81
2018-05-14T09:37:03.542Z,34.95
2018-05-14T09:37:39.146Z,35.39
2018-05-14T09:38:14.764Z,35.03
2018-05-14T09:38:50.240Z,34.23
2018-05-14T09:39:25.671Z,33.79
2018-05-14T09:40:01.367Z,33.92
2018-05-14T09:40:37.242Z,34.66
2018-05-14T09:41:12.442Z,35.13
2018-05-14T09:41:47.695Z,34.53
2018-05-14T09:42:23.100Z,34.56
2018-05-14T09:42:58.614Z,35.14
2018-05-14T09:43:34.058Z,34.61
2018-05-14T09:44:09.461Z,34.89
2018-05-14T09:44:45.239Z,35.39
2018-05-14T09:45:20.559Z,35.97
2018-05-14T09:45:56.253Z,36.07
2018-05-14T09:46:31.596Z,35.54
2018-05-14T09:47:06.765Z,35.33
2018-05-14T09:47:42.148Z,35.15
2018-05-14T09:48:17.949Z,34.26
2018-05-14T09:48:53.472Z,34.22
2018-05-14T09:49:28.896Z,34.50
2018-05-14T09:50:04.221Z,35.11
2018-05-14T09:50:39.873Z,35.39
2018-05-14T09:51:15.504Z,36.03
2018-05-14T09:51:51.221Z,35.81
2018-05-14T09:52:26.848Z,35.97
2018-05-14T09:53:02.147Z,36.23
2018-05-14T09:53:37.680Z,35.42
2018-05-14T09:54:13.202Z,34.31
2018-05-14T09:54:48.667Z,34.48
2018-05-14T09:55:24.206Z,33.76
2018-05-14T09:55:59.720Z,33.73
2018-05-14T09:56:34.993Z,33.87
2018-05-14T09:57:10.367Z,34.34
2018-05-14T09:57:45.691Z,34.76
2018-05-14T09:58:21.372Z,34.23
2018-05-14T09:58:57.077Z,34.24
2018-05-14T09:59:32.306Z,34.77
2018-05-14T10:00:07.711Z,35.28
2018-05-14T10:00:43.040Z,35.63
2018-05-14T10:01:18.473Z,36.17
2018-05-14T10:01:53.827Z,35.70
2018-05-14T10:02:29.149Z,34.86
2018-05-14T10:03:04.650Z,35.18
2018-05-14T10:03:40.075Z,34.02
2018-05-14T10:04:15.483Z,33.76
2018-05-14T10:04:50.973Z,33.41
2018-05-14T10:05:26.241Z,33.19
2018-05-14T10:06:01.509Z,33.76
2018-05-14T10:06:36.785Z,33.82
2018-05-14T10:07:12.070Z,34.08
2018-05-14T10:07:47.456Z,33.74
2018-05-14T10:08:22.873Z,32.99
2018-05-14T10:08:58.145Z,32.70
2018-05-14T10:09:33.360Z,32.57
2018-05-14T10:10:09.164Z,32.40
2018-05-14T10:10:44.575Z,32.24
2018-05-14T10:11:19.942Z,31.72
2018-05-14T10:11:55.443Z,31.54
2018-05-14T10:12:30.827Z,31.70
2018-05-14T10:13:06.721Z,31.62
2018-05-14T10:13:41.922Z,32.06
2018-05-14T10:14:17.386Z,32.30
2018-05-14T10:14:52.719Z,31.79
2018-05-14T10:15:28.015Z,31.65
2018-05-14T10:16:03.550Z,32.05
2018-05-14T10:16:39.211Z,32.10
2018-05-14T10:17:14.511Z,31.98
2018-05-14T10:17:50.059Z,31.82
2018-05-14T10:18:25.678Z,31.57
2018-05-14T10:19:01.253Z,31.65
2018-05-14T10:19:36.602Z,31.93
2018-05-14T10:20:12.055Z,32.07
2018-05-14T10:20:47.272Z,32.27
2018-05-14T10:21:22.408Z,32.61
2018-05-14T10:21:57.828Z,32.95
2018-05-14T10:22:33.395Z,33.14
2018-05-14T10:23:08.924Z,33.30
2018-05-14T10:23:44.269Z,33.03
2018-05-14T10:24:19.610Z,32.76
2018-05-14T10:24:55.034Z,32.49
2018-05-14T10:25:30.137Z,32.76
2018-05-14T10:26:05.345Z,32.29
2018-05-14T10:26:40.609Z,32.30
2018-05-14T10:27:15.878Z,32.30
2018-05-14T10:27:51.514Z,31.98
2018-05-14T10:28:27.034Z,31.73
2018-05-14T10:29:02.397Z,31.67
2018-05-14T10:29:37.924Z,31.55
2018-05-14T10:30:13.172Z,31.53
2018-05-14T10:30:48.693Z,31.95
2018-05-14T10:31:23.921Z,31.91
2018-05-14T10:32:00.005Z,32.15
2018-05-14T10:32:35.302Z,32.29
2018-05-14T10:33:10.719Z,32.30
2018-05-14T10:33:46.085Z,32.30
2018-05-14T10:34:21.717Z,32.13
2018-05-14T10:34:57.179Z,32.29
2018-05-14T10:35:32.536Z,32.24
2018-05-14T10:36:08.303Z,31.82
2018-05-14T10:36:43.847Z,31.76
2018-05-14T10:37:19.578Z,31.79
2018-05-14T10:37:55.012Z,31.65
2018-05-14T10:38:30.467Z,31.40
2018-05-14T10:39:05.681Z,31.24
2018-05-14T10:39:48.083Z,31.02
2018-05-14T10:40:23.479Z,31.02
2018-05-14T10:40:59.030Z,30.56
2018-05-14T10:41:34.293Z,30.99
2018-05-14T10:42:09.674Z,31.23
2018-05-14T10:42:45.046Z,31.24
2018-05-14T10:43:20.617Z,30.90
2018-05-14T10:43:56.109Z,30.76
2018-05-14T10:44:31.611Z,30.99
2018-05-14T10:45:06.851Z,30.72
2018-05-14T10:45:42.032Z,30.83
2018-05-14T10:46:17.411Z,31.04
2018-05-14T10:46:52.759Z,30.75
2018-05-14T10:47:28.032Z,30.86
2018-05-14T10:48:03.558Z,30.40
2018-05-14T10:48:39.125Z,30.05
2018-05-14T10:49:14.556Z,29.94
2018-05-14T10:49:50.103Z,29.72
2018-05-14T10:50:25.467Z,29.68
2018-05-14T10:51:00.981Z,29.56
2018-05-14T10:51:36.418Z,29.56
2018-05-14T10:52:11.863Z,29.65
2018-05-14T10:52:47.592Z,29.62
2018-05-14T10:53:23.081Z,29.68
2018-05-14T10:53:58.916Z,29.41
2018-05-14T10:54:34.080Z,29.50
2018-05-14T10:55:09.362Z,29.60
2018-05-14T10:55:45.065Z,29.71
2018-05-14T10:56:20.378Z,29.68
2018-05-14T10:56:55.708Z,29.68
2018-05-14T10:57:31.415Z,29.70
2018-05-14T10:58:06.610Z,29.66
2018-05-14T10:58:42.251Z,29.43
2018-05-14T10:59:17.633Z,29.26
2018-05-14T10:59:52.675Z,29.29
2018-05-14T11:00:28.180Z,29.28
2018-05-14T11:01:03.541Z,29.29
2018-05-14T11:01:38.995Z,29.28
2018-05-14T11:02:14.483Z,29.10
2018-05-14T11:02:49.829Z,29.11
2018-05-14T11:03:25.064Z,29.16
2018-05-14T11:04:00.315Z,29.44
2018-05-14T11:04:35.555Z,29.56
2018-05-14T11:05:11.030Z,29.35
2018-05-14T11:05:46.258Z,29.25
2018-05-14T11:06:21.933Z,29.11
2018-05-14T11:06:57.385Z,28.95
2018-05-14T11:07:32.949Z,28.96
2018-05-14T11:08:08.695Z,29.00
2018-05-14T11:08:44.273Z,28.80
2018-05-14T11:09:19.515Z,28.81
2018-05-14T11:09:54.830Z,28.75
2018-05-14T11:10:30.027Z,28.84
2018-05-14T11:11:05.471Z,28.77
2018-05-14T11:11:40.868Z,28.81
2018-05-14T11:12:16.103Z,28.80
2018-05-14T11:12:51.800Z,28.75
2018-05-14T11:13:27.120Z,28.78
2018-05-14T11:14:02.373Z,28.82
2018-05-14T11:14:37.901Z,28.81
2018-05-14T11:15:13.033Z,29.00
2018-05-14T11:15:48.335Z,28.96
2018-05-14T11:16:23.890Z,28.95
2018-05-14T11:16:59.171Z,29.03
2018-05-14T11:17:34.455Z,28.93
2018-05-14T11:18:10.115Z,29.07
2018-05-14T11:18:45.734Z,29.04
2018-05-14T11:19:21.390Z,29.11
2018-05-14T11:19:57.125Z,28.87
2018-05-14T11:20:32.368Z,29.01
2018-05-14T11:21:07.657Z,29.10
2018-05-14T11:21:43.100Z,28.93
2018-05-14T11:22:18.526Z,28.91
2018-05-14T11:22:53.880Z,28.85
2018-05-14T11:23:29.061Z,28.75
2018-05-14T11:24:04.404Z,28.54
2018-05-14T11:24:39.878Z,28.58
2018-05-14T11:25:15.120Z,28.69
2018-05-14T11:25:50.468Z,28.66
2018-05-14T11:26:26.083Z,28.65
2018-05-14T11:27:01.524Z,28.65
2018-05-14T11:27:36.728Z,28.68
2018-05-14T11:28:12.280Z,28.78
2018-05-14T11:28:47.703Z,28.68
2018-05-14T11:29:23.051Z,28.65
2018-05-14T11:29:58.434Z,28.77
2018-05-14T11:30:34.114Z,28.66
2018-05-14T11:31:09.699Z,28.82
2018-05-14T11:31:45.061Z,28.72
2018-05-14T11:32:20.396Z,28.53
2018-05-14T11:32:55.957Z,28.54
2018-05-14T11:33:31.445Z,28.73
2018-05-14T11:34:06.833Z,28.85
2018-05-14T11:34:42.101Z,29.01
2018-05-14T11:35:17.458Z,29.08
2018-05-14T11:35:52.949Z,29.00
2018-05-14T11:36:28.283Z,28.80
2018-05-14T11:37:03.607Z,28.53
2018-05-14T11:37:39.140Z,28.40
2018-05-14T11:38:14.593Z,28.47
2018-05-14T11:38:49.969Z,28.41
2018-05-14T11:39:25.554Z,28.44
2018-05-14T11:40:01.254Z,28.36
2018-05-14T11:40:36.616Z,28.44
2018-05-14T11:41:11.956Z,28.43
2018-05-14T11:41:47.298Z,28.56
2018-05-14T11:42:22.606Z,28.44
2018-05-14T11:42:58.207Z,28.59
2018-05-14T11:43:33.466Z,28.53
2018-05-14T11:44:08.804Z,28.63
2018-05-14T11:44:44.222Z,28.73
2018-05-14T11:45:19.577Z,28.69
2018-05-14T11:45:55.070Z,28.70
2018-05-14T11:46:30.404Z,28.75
2018-05-14T11:47:05.957Z,28.78
2018-05-14T11:47:41.461Z,28.87
2018-05-14T11:48:16.977Z,28.88
2018-05-14T11:48:52.433Z,28.60
2018-05-14T11:49:27.796Z,28.40
2018-05-14T11:50:03.051Z,28.29
2018-05-14T11:50:38.716Z,28.32
2018-05-14T11:51:13.861Z,28.41
2018-05-14T11:51:49.075Z,28.32
2018-05-14T11:52:24.726Z,28.53
2018-05-14T11:53:00.066Z,28.59
2018-05-14T11:53:35.502Z,28.60
2018-05-14T11:54:10.932Z,28.44
2018-05-14T11:54:46.482Z,28.48
2018-05-14T11:55:22.569Z,28.41
2018-05-14T11:55:57.886Z,28.41
2018-05-14T11:56:33.123Z,28.50
2018-05-14T11:57:09.743Z,28.41
2018-05-14T11:57:45.050Z,28.50
2018-05-14T11:58:20.754Z,28.40
2018-05-14T11:58:56.185Z,28.31
2018-05-14T11:59:31.347Z,28.33
2018-05-14T12:00:06.542Z,28.33
2018-05-14T12:00:42.701Z,28.23
2018-05-14T12:01:18.602Z,28.28
2018-05-14T12:01:54.170Z,28.35
2018-05-14T12:02:29.860Z,28.50
2018-05-14T12:03:05.667Z,28.54
2018-05-14T12:03:40.926Z,28.62
2018-05-14T12:04:16.136Z,28.63
2018-05-14T12:04:51.300Z,28.54
2018-05-14T12:05:26.898Z,28.59
2018-05-14T12:06:02.038Z,28.70
2018-05-14T12:06:37.377Z,28.77
2018-05-14T12:07:12.467Z,28.73
2018-05-14T12:07:47.809Z,28.62
2018-05-14T12:08:23.262Z,28.59
2018-05-14T12:08:59.107Z,28.56
2018-05-14T12:09:34.443Z,28.62
2018-05-14T12:10:10.144Z,28.68
2018-05-14T12:10:45.390Z,28.72
2018-05-14T12:11:20.717Z,28.80
2018-05-14T12:11:55.898Z,28.66
2018-05-14T12:12:31.257Z,28.77
2018-05-14T12:13:06.945Z,28.66
2018-05-14T12:13:42.384Z,28.75
2018-05-14T12:14:17.799Z,28.85
2018-05-14T12:14:53.226Z,28.85
2018-05-14T12:15:28.592Z,28.84
2018-05-14T12:16:04.051Z,28.80
2018-05-14T12:16:39.476Z,28.90
2018-05-14T12:17:14.977Z,28.96
2018-05-14T12:17:50.279Z,28.87
2018-05-14T12:18:26.075Z,28.87
2018-05-14T12:19:01.181Z,28.88
2018-05-14T12:19:36.256Z,28.95
2018-05-14T12:20:11.856Z,28.82
2018-05-14T12:20:47.353Z,28.80
2018-05-14T12:21:22.805Z,28.75
2018-05-14T12:21:58.147Z,28.54
2018-05-14T12:22:33.475Z,28.54
2018-05-14T12:23:09.191Z,28.65
2018-05-14T12:23:44.534Z,28.51
2018-05-14T12:24:20.225Z,28.50
2018-05-14T12:24:55.583Z,28.60
2018-05-14T12:25:31.141Z,28.56
2018-05-14T12:26:06.617Z,28.62
2018-05-14T12:26:41.967Z,28.59
2018-05-14T12:27:17.667Z,28.56
2018-05-14T12:27:53.335Z,28.59
2018-05-14T12:28:28.857Z,28.65
2018-05-14T12:29:04.195Z,28.63
2018-05-14T12:29:39.600Z,28.78
2018-05-14T12:30:15.182Z,28.69
2018-05-14T12:30:50.827Z,28.78
2018-05-14T12:31:26.602Z,28.68
2018-05-14T12:32:02.330Z,28.78
2018-05-14T12:32:37.771Z,28.81
2018-05-14T12:33:13.093Z,28.84
2018-05-14T12:33:48.676Z,28.88
2018-05-14T12:34:24.529Z,28.82
2018-05-14T12:35:00.399Z,28.88
2018-05-14T12:35:36.017Z,28.96
2018-05-14T12:36:11.672Z,28.90
2018-05-14T12:36:47.166Z,28.81
2018-05-14T12:37:22.530Z,28.82
2018-05-14T12:37:57.789Z,28.73
2018-05-14T12:38:32.886Z,28.75
2018-05-14T12:39:08.578Z,28.90
2018-05-14T12:39:44.024Z,28.68
2018-05-14T12:40:19.496Z,28.72
2018-05-14T12:40:54.845Z,28.81
2018-05-14T12:41:29.931Z,28.80
2018-05-14T12:42:05.205Z,28.85
2018-05-14T12:42:40.397Z,28.77
2018-05-14T12:43:15.721Z,28.56
2018-05-14T12:43:51.207Z,28.43
2018-05-14T12:44:26.732Z,28.41
2018-05-14T12:45:02.281Z,28.43
2018-05-14T12:45:37.642Z,28.38
2018-05-14T12:46:13.307Z,28.29
2018-05-14T12:46:49.288Z,28.44
2018-05-14T12:47:24.619Z,28.46
2018-05-14T12:47:59.860Z,28.44
2018-05-14T12:48:35.015Z,28.48
2018-05-14T12:49:10.519Z,28.56
2018-05-14T12:49:46.024Z,28.47
2018-05-14T12:50:21.521Z,28.58
2018-05-14T12:50:56.793Z,28.51
2018-05-14T12:51:32.322Z,28.58
2018-05-14T12:52:07.833Z,28.56
2018-05-14T12:52:43.085Z,28.53
2018-05-14T12:53:18.351Z,28.50
2018-05-14T12:53:53.908Z,28.56
2018-05-14T12:54:29.239Z,28.59
2018-05-14T12:55:04.707Z,28.58
2018-05-14T12:55:40.059Z,28.44
2018-05-14T12:56:15.558Z,28.50
2018-05-14T12:56:50.877Z,28.38
2018-05-14T12:57:26.344Z,28.33
2018-05-14T12:58:01.821Z,28.29
2018-05-14T12:58:37.228Z,28.17
2018-05-14T12:59:13.030Z,28.28
2018-05-14T12:59:48.361Z,28.31
2018-05-14T13:00:23.595Z,28.46
2018-05-14T13:00:59.009Z,28.31
2018-05-14T13:01:34.289Z,28.35
2018-05-14T13:02:09.753Z,28.44
2018-05-14T13:02:45.225Z,28.43
2018-05-14T13:03:20.511Z,28.47
2018-05-14T13:03:55.897Z,28.50
2018-05-14T13:04:31.167Z,28.62
2018-05-14T13:05:06.563Z,28.56
2018-05-14T13:05:41.945Z,28.54
2018-05-14T13:06:17.258Z,28.48
2018-05-14T13:06:52.854Z,28.46
2018-05-14T13:07:28.139Z,28.56
2018-05-14T13:08:03.469Z,28.63
2018-05-14T13:08:39.253Z,28.60
2018-05-14T13:09:14.945Z,28.62
2018-05-14T13:09:50.292Z,28.60
2018-05-14T13:10:25.535Z,28.60
2018-05-14T13:11:01.162Z,28.53
2018-05-14T13:11:36.769Z,28.56
2018-05-14T13:12:12.050Z,28.54
2018-05-14T13:12:47.396Z,28.54
2018-05-14T13:13:22.918Z,28.50
2018-05-14T13:13:58.384Z,28.56
2018-05-14T13:14:33.767Z,28.68
2018-05-14T13:15:09.343Z,28.50
2018-05-14T13:15:44.781Z,28.59
2018-05-14T13:16:19.861Z,28.62
2018-05-14T13:16:55.133Z,28.56
2018-05-14T13:17:30.531Z,28.54
2018-05-14T13:18:06.005Z,28.54
2018-05-14T13:18:41.372Z,28.59
2018-05-14T13:19:16.657Z,28.53
2018-05-14T13:19:52.037Z,28.54
2018-05-14T13:20:27.591Z,28.54
2018-05-14T13:21:02.961Z,28.48
2018-05-14T13:21:38.271Z,28.65
2018-05-14T13:22:13.793Z,28.70